createdAt,value
2022-07-27T00:01:08.972Z,18.52
2022-07-27T00:03:38.061Z,18.52
2022-07-27T00:06:06.304Z,18.80
2022-07-27T00:08:34.682Z,18.67
2022-07-27T00:11:04.186Z,18.58
2022-07-27T00:13:32.677Z,18.84
2022-07-27T00:16:00.765Z,18.84
2022-07-27T00:18:28.894Z,18.82
2022-07-27T00:20:56.943Z,18.90
2022-07-27T00:23:24.919Z,18.71
2022-07-27T00:25:54.196Z,18.58
2022-07-27T00:28:23.775Z,18.53
2022-07-27T00:30:51.754Z,18.52
2022-07-27T00:33:19.855Z,18.49
2022-07-27T00:35:48.013Z,18.52
2022-07-27T00:38:16.406Z,18.49
2022-07-27T00:40:45.032Z,18.39
2022-07-27T00:43:13.595Z,18.39
2022-07-27T00:45:43.017Z,18.31
2022-07-27T00:48:10.995Z,18.30
2022-07-27T00:50:42.102Z,18.24
2022-07-27T00:53:10.946Z,18.30
2022-07-27T00:55:40.264Z,18.24
2022-07-27T00:58:09.763Z,18.26
2022-07-27T01:00:38.852Z,18.32
2022-07-27T01:03:09.074Z,18.37
2022-07-27T01:05:42.507Z,18.49
2022-07-27T01:08:13.909Z,18.53
2022-07-27T01:10:43.194Z,18.67
2022-07-27T01:13:12.903Z,18.63
2022-07-27T01:15:42.065Z,18.62
2022-07-27T01:18:14.001Z,18.65
2022-07-27T01:20:42.690Z,18.61
2022-07-27T01:23:12.112Z,18.59
2022-07-27T01:25:43.027Z,18.61
2022-07-27T01:28:11.134Z,18.61
2022-07-27T01:30:39.165Z,18.60
2022-07-27T01:33:08.631Z,18.60
2022-07-27T01:35:37.183Z,18.60
2022-07-27T01:38:05.622Z,18.65
2022-07-27T01:40:36.746Z,18.59
2022-07-27T01:43:05.544Z,18.57
2022-07-27T01:45:33.710Z,18.57
2022-07-27T01:48:01.844Z,18.57
2022-07-27T01:50:30.118Z,18.62
2022-07-27T01:52:58.100Z,18.65
2022-07-27T01:55:26.056Z,18.76
2022-07-27T01:57:55.497Z,18.72
2022-07-27T02:00:23.578Z,18.76
2022-07-27T02:02:52.152Z,18.83
2022-07-27T02:05:20.254Z,18.90
2022-07-27T02:07:48.185Z,18.65
2022-07-27T02:10:16.284Z,18.65
2022-07-27T02:12:44.444Z,18.75
2022-07-27T02:15:16.080Z,18.69
2022-07-27T02:17:44.914Z,18.78
2022-07-27T02:20:15.229Z,18.74
2022-07-27T02:22:43.835Z,18.62
2022-07-27T02:25:13.775Z,18.78
2022-07-27T02:27:42.569Z,18.72
2022-07-27T02:30:13.747Z,18.66
2022-07-27T02:32:44.116Z,18.69
2022-07-27T02:35:19.530Z,18.69
2022-07-27T02:37:48.642Z,18.63
2022-07-27T02:40:17.869Z,18.54
2022-07-27T02:42:46.830Z,18.63
2022-07-27T02:45:16.636Z,18.58
2022-07-27T02:47:45.054Z,18.52
2022-07-27T02:50:13.513Z,18.47
2022-07-27T02:52:41.717Z,18.43
2022-07-27T02:55:10.859Z,18.46
2022-07-27T02:57:41.006Z,18.38
2022-07-27T03:00:12.591Z,18.36
2022-07-27T03:02:42.492Z,18.47
2022-07-27T03:05:12.515Z,18.41
2022-07-27T03:07:40.506Z,18.40
2022-07-27T03:10:09.202Z,18.27
2022-07-27T03:12:37.224Z,18.38
2022-07-27T03:15:06.487Z,18.36
2022-07-27T03:17:34.484Z,18.40
2022-07-27T03:20:03.997Z,18.32
2022-07-27T03:22:33.371Z,18.22
2022-07-27T03:25:01.548Z,18.17
2022-07-27T03:27:30.052Z,18.08
2022-07-27T03:29:58.244Z,18.11
2022-07-27T03:32:26.315Z,18.00
2022-07-27T03:34:54.367Z,17.97
2022-07-27T03:37:23.704Z,17.95
2022-07-27T03:39:51.706Z,17.99
2022-07-27T03:42:19.656Z,17.97
2022-07-27T03:44:47.623Z,17.98
2022-07-27T03:47:15.565Z,17.94
2022-07-27T03:49:43.632Z,17.87
2022-07-27T03:52:17.253Z,17.92
2022-07-27T03:54:47.863Z,18.01
2022-07-27T03:57:16.124Z,17.90
2022-07-27T03:59:44.127Z,18.00
2022-07-27T04:02:12.189Z,17.94
2022-07-27T04:04:40.348Z,17.83
2022-07-27T04:07:08.723Z,17.82
2022-07-27T04:09:37.564Z,17.83
2022-07-27T04:12:09.248Z,17.89
2022-07-27T04:14:37.308Z,17.80
2022-07-27T04:17:05.566Z,17.90
2022-07-27T04:19:33.655Z,17.89
2022-07-27T04:22:01.674Z,17.79
2022-07-27T04:24:29.943Z,17.80
2022-07-27T04:26:57.953Z,17.73
2022-07-27T04:29:27.348Z,17.73
2022-07-27T04:31:55.414Z,17.66
2022-07-27T04:34:23.517Z,17.71
2022-07-27T04:36:51.540Z,17.76
2022-07-27T04:39:19.532Z,17.66
2022-07-27T04:41:47.492Z,17.72
2022-07-27T04:44:15.669Z,17.73
2022-07-27T04:46:45.209Z,17.70
2022-07-27T04:49:13.635Z,17.70
2022-07-27T04:51:44.755Z,17.87
2022-07-27T04:54:13.816Z,17.79
2022-07-27T04:56:41.790Z,17.78
2022-07-27T04:59:10.314Z,17.79
2022-07-27T05:01:38.769Z,17.75
2022-07-27T05:04:08.188Z,17.77
2022-07-27T05:06:36.305Z,17.89
2022-07-27T05:09:04.794Z,18.03
2022-07-27T05:11:32.884Z,17.88
2022-07-27T05:14:00.785Z,17.91
2022-07-27T05:16:29.336Z,17.98
2022-07-27T05:18:57.622Z,17.93
2022-07-27T05:21:29.165Z,17.97
2022-07-27T05:23:57.176Z,18.03
2022-07-27T05:26:25.169Z,18.22
2022-07-27T05:28:53.185Z,18.29
2022-07-27T05:31:21.246Z,18.46
2022-07-27T05:33:57.509Z,18.21
2022-07-27T05:36:27.587Z,18.21
2022-07-27T05:38:55.604Z,18.31
2022-07-27T05:41:24.624Z,18.49
2022-07-27T05:43:54.318Z,18.48
2022-07-27T05:46:22.324Z,18.51
2022-07-27T05:48:50.411Z,18.64
2022-07-27T05:51:18.381Z,18.74
2022-07-27T05:53:47.660Z,18.74
2022-07-27T05:56:16.511Z,18.66
2022-07-27T05:58:44.519Z,18.81
2022-07-27T06:01:12.669Z,18.73
2022-07-27T06:03:40.870Z,18.92
2022-07-27T06:06:26.832Z,19.00
2022-07-27T06:08:56.243Z,19.46
2022-07-27T06:11:24.209Z,19.39
2022-07-27T06:13:52.830Z,19.51
2022-07-27T06:16:20.836Z,19.58
2022-07-27T06:18:48.997Z,19.84
2022-07-27T06:21:17.171Z,20.02
2022-07-27T06:23:48.506Z,19.89
2022-07-27T06:26:18.261Z,19.97
2022-07-27T06:28:46.704Z,20.05
2022-07-27T06:31:15.018Z,20.01
2022-07-27T06:33:43.379Z,19.93
2022-07-27T06:36:14.215Z,20.37
2022-07-27T06:38:42.244Z,20.37
2022-07-27T06:41:10.230Z,20.51
2022-07-27T06:43:39.933Z,20.53
2022-07-27T06:46:12.471Z,20.45
2022-07-27T06:48:41.023Z,20.60
2022-07-27T06:51:09.844Z,20.43
2022-07-27T06:53:38.002Z,20.42
2022-07-27T06:56:08.297Z,20.46
2022-07-27T06:58:37.472Z,20.38
2022-07-27T07:01:06.940Z,20.37
2022-07-27T07:03:34.959Z,20.39
2022-07-27T07:06:03.155Z,20.36
2022-07-27T07:08:31.144Z,20.55
2022-07-27T07:10:59.210Z,20.21
2022-07-27T07:13:27.250Z,20.39
2022-07-27T07:15:55.292Z,20.39
2022-07-27T07:18:24.872Z,20.26
2022-07-27T07:20:52.741Z,20.29
2022-07-27T07:23:20.932Z,20.33
2022-07-27T07:25:48.941Z,20.67
2022-07-27T07:28:16.925Z,21.16
2022-07-27T07:30:45.038Z,21.78
2022-07-27T07:33:13.300Z,22.56
2022-07-27T07:36:13.547Z,22.98
2022-07-27T07:38:31.350Z,22.78
2022-07-27T07:40:59.339Z,23.09
2022-07-27T07:43:28.719Z,23.16
2022-07-27T07:45:57.316Z,23.19
2022-07-27T07:48:25.292Z,23.45
2022-07-27T07:50:54.647Z,23.47
2022-07-27T07:53:23.391Z,23.80
2022-07-27T07:55:52.174Z,24.06
2022-07-27T07:58:20.375Z,24.01
2022-07-27T08:00:48.504Z,23.60
2022-07-27T08:03:16.656Z,23.71
2022-07-27T08:05:45.873Z,24.10
2022-07-27T08:08:15.382Z,24.85
2022-07-27T08:10:43.680Z,25.23
2022-07-27T08:13:11.769Z,25.14
2022-07-27T08:15:39.806Z,24.60
2022-07-27T08:18:09.498Z,24.53
2022-07-27T08:20:37.519Z,24.71
2022-07-27T08:23:05.904Z,24.59
2022-07-27T08:25:35.287Z,24.62
2022-07-27T08:28:03.238Z,24.71
2022-07-27T08:30:32.395Z,24.83
2022-07-27T08:33:03.960Z,24.54
2022-07-27T08:35:33.136Z,24.56
2022-07-27T08:38:02.983Z,24.68
2022-07-27T08:40:41.073Z,24.52
2022-07-27T08:43:20.198Z,24.20
2022-07-27T08:45:55.077Z,23.81
2022-07-27T08:48:25.019Z,23.64
2022-07-27T08:50:53.277Z,23.38
2022-07-27T08:53:23.155Z,23.17
2022-07-27T08:55:51.385Z,23.93
2022-07-27T08:58:20.802Z,23.85
2022-07-27T09:00:49.739Z,23.58
2022-07-27T09:03:20.960Z,23.50
2022-07-27T09:05:51.485Z,23.45
2022-07-27T09:08:22.426Z,23.76
2022-07-27T09:10:51.189Z,24.11
2022-07-27T09:13:25.579Z,25.21
2022-07-27T09:16:17.009Z,25.45
2022-07-27T09:18:43.608Z,25.66
2022-07-27T09:21:16.860Z,26.23
2022-07-27T09:23:48.136Z,26.76
2022-07-27T09:26:31.942Z,26.11
2022-07-27T09:29:04.764Z,26.10
2022-07-27T09:31:33.681Z,27.11
2022-07-27T09:34:03.704Z,26.73
2022-07-27T09:36:31.987Z,25.96
2022-07-27T09:39:03.715Z,25.55
2022-07-27T09:41:43.059Z,24.78
2022-07-27T09:44:31.734Z,24.21
2022-07-27T09:47:00.685Z,23.44
2022-07-27T09:49:31.216Z,23.37
2022-07-27T09:52:02.156Z,23.11
2022-07-27T09:54:44.105Z,23.14
2022-07-27T09:57:12.332Z,23.20
2022-07-27T09:59:41.867Z,23.14
2022-07-27T10:02:09.850Z,22.91
2022-07-27T10:04:38.032Z,22.78
2022-07-27T10:07:10.880Z,22.92
2022-07-27T10:09:41.448Z,22.82
2022-07-27T10:12:10.173Z,23.58
2022-07-27T10:14:38.242Z,24.89
2022-07-27T10:17:10.682Z,24.40
2022-07-27T10:19:46.345Z,24.76
2022-07-27T10:22:14.531Z,24.65
2022-07-27T10:24:42.988Z,25.03
2022-07-27T10:27:22.114Z,26.07
2022-07-27T10:29:51.768Z,26.70
2022-07-27T10:32:27.297Z,27.15
2022-07-27T10:34:55.351Z,27.79
2022-07-27T10:37:27.978Z,27.58
2022-07-27T10:40:12.235Z,27.74
2022-07-27T10:42:40.915Z,28.65
2022-07-27T10:45:10.671Z,28.62
2022-07-27T10:47:41.939Z,28.53
2022-07-27T10:50:33.465Z,28.71
2022-07-27T10:53:05.045Z,29.33
2022-07-27T10:55:56.806Z,29.76
2022-07-27T10:58:45.053Z,29.30
2022-07-27T11:01:16.657Z,29.02
2022-07-27T11:03:53.695Z,28.33
2022-07-27T11:06:39.829Z,28.01
2022-07-27T11:12:05.885Z,28.60
2022-07-27T11:14:45.109Z,28.26
2022-07-27T11:20:03.818Z,27.73
2022-07-27T11:25:21.620Z,28.16
2022-07-27T11:27:49.880Z,28.54
2022-07-27T11:30:25.554Z,28.06
2022-07-27T11:32:54.676Z,27.76
2022-07-27T11:35:25.625Z,27.37
2022-07-27T11:38:01.959Z,28.00
2022-07-27T11:43:39.574Z,29.34
2022-07-27T11:46:17.904Z,30.04
2022-07-27T11:49:06.174Z,29.92
2022-07-27T11:51:38.264Z,30.28
2022-07-27T11:54:08.814Z,30.88
2022-07-27T11:56:40.158Z,31.28
2022-07-27T11:59:11.707Z,31.71
2022-07-27T12:01:42.754Z,32.39
2022-07-27T12:04:18.219Z,31.53
2022-07-27T12:06:50.120Z,29.74
2022-07-27T12:09:18.910Z,29.44
2022-07-27T12:11:51.205Z,28.86
2022-07-27T12:14:19.304Z,30.27
2022-07-27T12:16:47.573Z,30.99
2022-07-27T12:19:23.848Z,29.18
2022-07-27T12:21:54.415Z,28.93
2022-07-27T12:24:37.118Z,29.04
2022-07-27T12:27:07.502Z,29.40
2022-07-27T12:29:56.884Z,29.66
2022-07-27T12:32:25.835Z,30.31
2022-07-27T12:34:54.644Z,30.33
2022-07-27T12:37:29.096Z,30.07
2022-07-27T12:39:57.202Z,29.78
2022-07-27T12:42:34.146Z,29.20
2022-07-27T12:45:13.486Z,29.61
2022-07-27T12:47:41.647Z,28.80
2022-07-27T12:50:11.671Z,27.73
2022-07-27T12:52:45.086Z,28.03
2022-07-27T12:55:16.145Z,28.60
2022-07-27T12:58:00.279Z,29.53
2022-07-27T13:00:33.873Z,29.05
2022-07-27T13:03:03.855Z,29.47
2022-07-27T13:05:33.284Z,30.00
2022-07-27T13:08:03.316Z,29.80
2022-07-27T13:10:31.969Z,29.02
2022-07-27T13:12:59.986Z,28.40
2022-07-27T13:15:28.032Z,28.85
2022-07-27T13:17:56.647Z,28.99
2022-07-27T13:20:24.683Z,30.20
2022-07-27T13:22:53.115Z,30.15
2022-07-27T13:25:22.562Z,29.56
2022-07-27T13:27:51.044Z,28.99
2022-07-27T13:30:19.541Z,29.17
2022-07-27T13:32:47.916Z,29.10
2022-07-27T13:35:17.481Z,28.78
2022-07-27T13:37:46.035Z,28.70
2022-07-27T13:40:15.615Z,29.29
2022-07-27T13:42:45.153Z,29.44
2022-07-27T13:45:13.322Z,29.33
2022-07-27T13:47:42.370Z,29.51
2022-07-27T13:50:18.374Z,29.98
2022-07-27T13:52:47.582Z,30.67
2022-07-27T13:55:16.690Z,30.77
2022-07-27T13:57:46.516Z,30.47
2022-07-27T14:00:15.511Z,30.69
2022-07-27T14:02:43.898Z,31.07
2022-07-27T14:05:14.550Z,31.19
2022-07-27T14:07:44.806Z,31.13
2022-07-27T14:10:31.324Z,30.72
2022-07-27T14:13:08.309Z,30.77
2022-07-27T14:15:52.795Z,30.53
2022-07-27T14:18:24.364Z,30.71
2022-07-27T14:20:52.591Z,30.81
2022-07-27T14:23:20.940Z,30.24
2022-07-27T14:25:49.111Z,29.55
2022-07-27T14:28:18.598Z,29.49
2022-07-27T14:30:47.114Z,29.34
2022-07-27T14:33:15.294Z,28.80
2022-07-27T14:35:43.563Z,29.12
2022-07-27T14:38:12.159Z,30.25
2022-07-27T14:40:41.455Z,29.66
2022-07-27T14:43:09.992Z,29.46
2022-07-27T14:45:45.403Z,29.42
2022-07-27T14:48:21.469Z,28.69
2022-07-27T14:50:53.394Z,27.61
2022-07-27T14:53:21.560Z,27.42
2022-07-27T14:55:49.592Z,26.87
2022-07-27T14:58:18.021Z,26.73
2022-07-27T15:00:47.426Z,26.88
2022-07-27T15:03:15.958Z,26.78
2022-07-27T15:05:49.502Z,26.29
2022-07-27T15:08:19.812Z,26.65
2022-07-27T15:10:48.178Z,26.70
2022-07-27T15:13:16.406Z,26.77
2022-07-27T15:15:44.483Z,27.24
2022-07-27T15:18:13.975Z,27.75
2022-07-27T15:20:42.046Z,27.59
2022-07-27T15:23:10.138Z,27.80
2022-07-27T15:25:38.211Z,28.37
2022-07-27T15:28:06.319Z,28.61
2022-07-27T15:30:38.551Z,29.13
2022-07-27T15:33:07.053Z,28.76
2022-07-27T15:35:36.464Z,28.51
2022-07-27T15:38:04.995Z,28.85
2022-07-27T15:40:38.944Z,28.73
2022-07-27T15:43:10.916Z,28.22
2022-07-27T15:45:40.144Z,28.23
2022-07-27T15:48:09.541Z,27.79
2022-07-27T15:50:40.208Z,27.92
2022-07-27T15:53:08.911Z,28.02
2022-07-27T15:55:37.689Z,27.48
2022-07-27T15:58:06.070Z,27.58
2022-07-27T16:00:39.549Z,27.47
2022-07-27T16:03:08.918Z,27.34
2022-07-27T16:05:37.106Z,27.65
2022-07-27T16:08:08.991Z,27.34
2022-07-27T16:10:37.558Z,27.48
2022-07-27T16:13:05.917Z,27.55
2022-07-27T16:15:51.980Z,27.28
2022-07-27T16:18:20.132Z,26.96
2022-07-27T16:20:48.437Z,27.51
2022-07-27T16:23:21.657Z,27.45
2022-07-27T16:26:03.880Z,27.03
2022-07-27T16:28:33.870Z,26.78
2022-07-27T16:31:02.672Z,26.62
2022-07-27T16:33:31.494Z,26.70
2022-07-27T16:35:59.637Z,26.66
2022-07-27T16:38:29.299Z,27.02
2022-07-27T16:40:57.268Z,27.40
2022-07-27T16:43:34.759Z,27.31
2022-07-27T16:46:09.871Z,27.66
2022-07-27T16:48:42.386Z,27.32
2022-07-27T16:51:12.824Z,26.64
2022-07-27T16:53:44.513Z,26.12
2022-07-27T16:56:12.878Z,25.36
2022-07-27T16:58:41.330Z,25.33
2022-07-27T17:01:10.122Z,25.00
2022-07-27T17:03:50.291Z,24.78
2022-07-27T17:06:19.394Z,24.74
2022-07-27T17:08:49.057Z,24.70
2022-07-27T17:11:21.657Z,24.42
2022-07-27T17:13:51.173Z,24.46
2022-07-27T17:16:27.817Z,24.27
2022-07-27T17:18:56.311Z,24.06
2022-07-27T17:21:24.306Z,24.01
2022-07-27T17:23:53.743Z,23.97
2022-07-27T17:26:22.716Z,24.07
2022-07-27T17:28:53.899Z,23.91
2022-07-27T17:31:22.398Z,23.82
2022-07-27T17:33:50.861Z,23.97
2022-07-27T17:36:19.275Z,23.75
2022-07-27T17:38:49.070Z,23.73
2022-07-27T17:41:24.081Z,23.47
2022-07-27T17:43:54.276Z,23.46
2022-07-27T17:46:23.175Z,23.48
2022-07-27T17:48:52.697Z,23.53
2022-07-27T17:51:23.002Z,23.55
2022-07-27T17:53:51.019Z,23.49
2022-07-27T17:56:20.448Z,23.29
2022-07-27T17:58:48.582Z,23.23
2022-07-27T18:01:16.718Z,23.16
2022-07-27T18:03:44.842Z,23.12
2022-07-27T18:06:12.967Z,23.11
2022-07-27T18:08:41.017Z,23.12
2022-07-27T18:11:12.059Z,23.04
2022-07-27T18:13:41.786Z,22.89
2022-07-27T18:16:11.996Z,22.89
2022-07-27T18:18:41.206Z,22.78
2022-07-27T18:21:10.408Z,22.75
2022-07-27T18:23:38.696Z,22.79
2022-07-27T18:26:07.135Z,22.64
2022-07-27T18:28:39.495Z,22.59
2022-07-27T18:31:15.281Z,22.47
2022-07-27T18:33:47.051Z,22.37
2022-07-27T18:36:16.208Z,22.46
2022-07-27T18:38:44.938Z,22.38
2022-07-27T18:41:13.448Z,22.15
2022-07-27T18:43:41.628Z,22.04
2022-07-27T18:46:11.083Z,21.81
2022-07-27T18:48:41.987Z,21.77
2022-07-27T18:51:10.006Z,21.73
2022-07-27T18:53:38.065Z,21.75
2022-07-27T18:56:06.288Z,21.68
2022-07-27T18:58:34.792Z,21.59
2022-07-27T19:01:03.161Z,21.60
2022-07-27T19:03:32.616Z,21.50
2022-07-27T19:06:02.344Z,21.50
2022-07-27T19:08:30.434Z,21.30
2022-07-27T19:10:58.547Z,21.18
2022-07-27T19:13:26.805Z,21.12
2022-07-27T19:15:55.013Z,20.97
2022-07-27T19:18:25.047Z,20.98
2022-07-27T19:20:55.476Z,20.91
2022-07-27T19:23:25.022Z,20.83
2022-07-27T19:25:59.097Z,20.82
2022-07-27T19:28:28.638Z,20.81
2022-07-27T19:30:56.576Z,20.66
2022-07-27T19:33:24.790Z,20.51
2022-07-27T19:35:55.525Z,20.43
2022-07-27T19:38:23.619Z,20.40
2022-07-27T19:40:51.978Z,20.46
2022-07-27T19:43:20.049Z,20.17
2022-07-27T19:45:48.733Z,20.08
2022-07-27T19:48:16.919Z,19.93
2022-07-27T19:50:45.624Z,19.73
2022-07-27T19:53:15.061Z,19.65
2022-07-27T19:55:44.041Z,19.70
2022-07-27T19:58:12.054Z,19.84
2022-07-27T20:00:40.104Z,19.73
2022-07-27T20:03:08.472Z,19.93
2022-07-27T20:05:36.440Z,19.77
2022-07-27T20:08:04.960Z,19.71
2022-07-27T20:10:34.405Z,19.77
2022-07-27T20:13:02.659Z,19.75
2022-07-27T20:15:30.669Z,19.76
2022-07-27T20:17:59.140Z,19.76
2022-07-27T20:20:27.470Z,19.59
2022-07-27T20:22:55.535Z,19.58
2022-07-27T20:25:24.444Z,19.49
2022-07-27T20:27:53.957Z,19.63
2022-07-27T20:30:22.288Z,19.56
2022-07-27T20:32:51.060Z,19.59
2022-07-27T20:35:19.437Z,19.71
2022-07-27T20:37:48.259Z,19.65
2022-07-27T20:40:16.735Z,19.52
2022-07-27T20:42:44.916Z,19.64
2022-07-27T20:45:14.885Z,19.59
2022-07-27T20:47:43.523Z,19.62
2022-07-27T20:50:13.722Z,19.63
2022-07-27T20:52:42.470Z,19.73
2022-07-27T20:55:11.969Z,19.63
2022-07-27T20:57:40.131Z,19.48
2022-07-27T21:00:10.085Z,19.55
2022-07-27T21:02:40.136Z,19.55
2022-07-27T21:05:09.851Z,19.53
2022-07-27T21:07:37.964Z,19.69
2022-07-27T21:10:06.948Z,19.70
2022-07-27T21:12:35.221Z,19.57
2022-07-27T21:15:03.483Z,19.57
2022-07-27T21:17:31.531Z,19.44
2022-07-27T21:20:00.919Z,19.48
2022-07-27T21:22:28.923Z,19.33
2022-07-27T21:24:55.925Z,19.33
2022-07-27T21:27:24.044Z,19.30
2022-07-27T21:29:52.715Z,19.17
2022-07-27T21:32:20.723Z,19.08
2022-07-27T21:34:48.769Z,19.02
2022-07-27T21:37:18.421Z,18.95
2022-07-27T21:39:46.574Z,19.00
2022-07-27T21:42:14.740Z,18.98
2022-07-27T21:44:42.766Z,18.96
2022-07-27T21:47:14.033Z,19.10
2022-07-27T21:49:42.982Z,19.02
2022-07-27T21:52:12.162Z,18.96
2022-07-27T21:54:41.567Z,18.96
2022-07-27T21:57:09.686Z,18.95
2022-07-27T21:59:37.704Z,18.90
2022-07-27T22:02:05.722Z,18.94
2022-07-27T22:04:34.029Z,18.81
2022-07-27T22:07:02.216Z,18.77
2022-07-27T22:09:30.294Z,18.67
2022-07-27T22:11:59.651Z,18.72
2022-07-27T22:14:27.679Z,18.62
2022-07-27T22:16:56.497Z,18.54
2022-07-27T22:19:24.604Z,18.45
2022-07-27T22:21:52.646Z,18.55
2022-07-27T22:24:20.651Z,18.38
2022-07-27T22:26:49.751Z,18.32
2022-07-27T22:29:19.158Z,18.27
2022-07-27T22:31:47.275Z,18.35
2022-07-27T22:34:15.605Z,18.32
2022-07-27T22:36:44.041Z,18.50
2022-07-27T22:39:12.808Z,18.32
2022-07-27T22:41:41.360Z,18.31
2022-07-27T22:44:09.442Z,18.38
2022-07-27T22:46:38.908Z,18.39
2022-07-27T22:49:06.990Z,18.49
2022-07-27T22:51:49.703Z,18.50
2022-07-27T22:54:21.069Z,18.38
2022-07-27T22:56:49.158Z,18.36
2022-07-27T22:59:17.285Z,18.16
2022-07-27T23:01:48.159Z,18.08
2022-07-27T23:04:17.924Z,18.07
2022-07-27T23:06:47.128Z,18.16
2022-07-27T23:09:15.705Z,18.31
2022-07-27T23:11:44.961Z,18.30
2022-07-27T23:14:14.191Z,18.27
2022-07-27T23:16:42.847Z,18.18
2022-07-27T23:19:12.377Z,18.08
2022-07-27T23:21:41.905Z,18.16
2022-07-27T23:24:11.107Z,18.10
2022-07-27T23:26:39.469Z,17.97
2022-07-27T23:29:07.471Z,17.92
2022-07-27T23:31:35.673Z,17.87
2022-07-27T23:34:03.740Z,17.91
2022-07-27T23:36:33.147Z,17.78
2022-07-27T23:39:01.144Z,17.77
2022-07-27T23:41:29.165Z,17.77
2022-07-27T23:43:57.181Z,17.80
2022-07-27T23:46:25.246Z,17.66
2022-07-27T23:48:53.383Z,17.71
2022-07-27T23:51:21.560Z,17.69
2022-07-27T23:53:50.881Z,17.85
2022-07-27T23:56:18.947Z,17.89
2022-07-27T23:58:47.060Z,17.80
